Latest METARs, TAFs and NOTAMs for ETSI


---------------------------------------------------------------------------
	(OBSERVATIONS)
ETSI 311020Z 26008KT 9999 FEW050 30/16 Q1015 BLU+=
ETSI 310920Z 28009KT 9999 FEW048 28/17 Q1016 BLU+=
ETSI 310820Z 28006KT 9999 FEW080 26/17 Q1016 BLU+BLU+=
---------------------------------------------------------------------------
	(FC)
TAF ETSI 311021Z 3111/3120 26008KT 9999 NSW FEW050=
---------------------------------------------------------------------------
	(TERMINAL AREA FORECAST)
ETSI 311021Z 3111/3120 26008KT 9999 NSW FEW050=
---------------------------------------------------------------------------
	(NOTAMS)


ETSI E2316/15 SPECIAL ACTIVITY AREA ESTABLISHED FOR AEROBATIC
    FLIGHTS RADIUS 3NM CENTERED AT 484200N 0113200E (INGOLSTADT/MANCHING).
    GND - 6000FT AMSL, SAT SUN 0700-SS, 01 AUG 07:00 2015 UNTIL
    31 OCT 15:56 2015. CREATED: 30 JUL 12:17 2015

ETSI P5448/15 AERODROME CLOSED EXCEPT CIVIL AIR TRAFFIC WITH
    PPR. MON 0700-1500, FRI 0700-1200, 10 AUG 07:00 2015 UNTIL
    31 AUG 15:00 2015. CREATED: 06 AUG 06:08 2015

ETSI W0017/15 GPS RAIM IS NOT AVAILABLE FOR NPA 09020622 TIL
    09020627. 02 SEP 06:22 2015 UNTIL 02 SEP 06:27 2015. CREATED:
    31 AUG 08:13 2015

---------------------------------------------------------------------------